createdAt,value
2018-04-04T00:00:34.220Z,89.11
2018-04-04T00:01:34.207Z,88.92
2018-04-04T00:02:34.216Z,89.11
2018-04-04T00:03:34.219Z,88.63
2018-04-04T00:04:34.190Z,89.11
2018-04-04T00:05:33.930Z,88.73
2018-04-04T00:06:33.924Z,88.44
2018-04-04T00:07:34.172Z,88.92
2018-04-04T00:08:34.164Z,88.34
2018-04-04T00:09:34.164Z,88.34
2018-04-04T00:10:34.152Z,88.54
2018-04-04T00:11:34.145Z,88.54
2018-04-04T00:12:34.141Z,88.73
2018-04-04T00:13:34.133Z,88.34
2018-04-04T00:14:34.129Z,88.25
2018-04-04T00:15:34.120Z,88.06
2018-04-04T00:16:34.115Z,88.34
2018-04-04T00:17:34.110Z,88.34
2018-04-04T00:18:34.106Z,88.15
2018-04-04T00:19:34.119Z,87.48
2018-04-04T00:20:33.837Z,87.62
2018-04-04T00:21:34.094Z,88.06
2018-04-04T00:22:34.077Z,87.96
2018-04-04T00:23:33.823Z,87.87
2018-04-04T00:24:33.817Z,87.91
2018-04-04T00:25:33.808Z,87.77
2018-04-04T00:26:34.053Z,87.68
2018-04-04T00:27:34.049Z,87.48
2018-04-04T00:28:34.042Z,87.68
2018-04-04T00:29:34.044Z,87.96
2018-04-04T00:30:34.031Z,87.96
2018-04-04T00:31:34.075Z,88.06
2018-04-04T00:32:34.022Z,88.25
2018-04-04T00:33:34.011Z,88.34
2018-04-04T00:34:34.006Z,88.63
2018-04-04T00:35:33.999Z,88.15
2018-04-04T00:36:33.748Z,88.34
2018-04-04T00:37:33.986Z,88.92
2018-04-04T00:38:33.981Z,89.11
2018-04-04T00:39:33.978Z,88.54
2018-04-04T00:40:33.967Z,88.44
2018-04-04T00:41:33.709Z,88.54
2018-04-04T00:42:33.955Z,88.73
2018-04-04T00:43:33.950Z,88.44
2018-04-04T00:44:33.949Z,88.92
2018-04-04T00:45:33.946Z,88.34
2018-04-04T00:46:33.936Z,88.54
2018-04-04T00:47:33.934Z,88.73
2018-04-04T00:48:33.918Z,88.44
2018-04-04T00:49:33.915Z,88.73
2018-04-04T00:50:33.904Z,88.25
2018-04-04T00:51:33.902Z,88.34
2018-04-04T00:52:33.897Z,88.15
2018-04-04T00:53:33.894Z,88.34
2018-04-04T00:54:33.884Z,88.34
2018-04-04T00:55:33.884Z,88.54
2018-04-04T00:56:33.879Z,88.54
2018-04-04T00:57:33.862Z,88.54
2018-04-04T00:58:33.889Z,88.54
2018-04-04T00:59:33.850Z,88.54
2018-04-04T01:00:33.844Z,88.44
2018-04-04T01:01:33.840Z,88.34
2018-04-04T01:02:33.834Z,88.73
2018-04-04T01:03:33.595Z,88.73
2018-04-04T01:04:33.820Z,88.92
2018-04-04T01:05:33.812Z,88.73
2018-04-04T01:06:33.558Z,88.25
2018-04-04T01:07:33.861Z,88.44
2018-04-04T01:08:33.796Z,88.73
2018-04-04T01:09:33.799Z,88.54
2018-04-04T01:10:33.781Z,88.73
2018-04-04T01:11:33.779Z,88.54
2018-04-04T01:12:33.772Z,88.63
2018-04-04T01:13:33.763Z,89.01
2018-04-04T01:14:33.506Z,89.2
2018-04-04T01:15:33.751Z,89.3
2018-04-04T01:16:33.753Z,89.49
2018-04-04T01:17:33.750Z,89.01
2018-04-04T01:18:33.736Z,89.39
2018-04-04T01:19:33.726Z,89.11
2018-04-04T01:20:33.719Z,88.92
2018-04-04T01:21:33.713Z,89.2
2018-04-04T01:22:33.707Z,89.3
2018-04-04T01:23:33.699Z,89.39
2018-04-04T01:24:33.693Z,89.2
2018-04-04T01:25:33.687Z,89.2
2018-04-04T01:26:33.682Z,89.01
2018-04-04T01:27:33.675Z,88.97
2018-04-04T01:28:33.671Z,89.16
2018-04-04T01:29:33.663Z,89.01
2018-04-04T01:30:33.659Z,89.01
2018-04-04T01:31:33.397Z,89.11
2018-04-04T01:32:33.644Z,89.2
2018-04-04T01:33:33.642Z,89.59
2018-04-04T01:34:33.631Z,89.68
2018-04-04T01:35:33.626Z,89.78
2018-04-04T01:36:33.619Z,89.59
2018-04-04T01:37:33.620Z,89.68
2018-04-04T01:38:33.622Z,89.68
2018-04-04T01:39:33.616Z,89.49
2018-04-04T01:40:33.343Z,89.68
2018-04-04T01:41:33.590Z,89.59
2018-04-04T01:42:33.589Z,89.06
2018-04-04T01:43:33.574Z,89.11
2018-04-04T01:44:33.572Z,89.11
2018-04-04T01:45:33.559Z,89.11
2018-04-04T01:46:33.554Z,89.01
2018-04-04T01:47:33.547Z,88.97
2018-04-04T01:48:33.541Z,88.87
2018-04-04T01:49:33.535Z,89.06
2018-04-04T01:50:33.528Z,89.06
2018-04-04T01:51:33.269Z,89.2
2018-04-04T01:52:33.517Z,89.01
2018-04-04T01:53:33.514Z,88.92
2018-04-04T01:54:33.252Z,89.2
2018-04-04T01:55:33.496Z,89.49
2018-04-04T01:56:33.490Z,89.73
2018-04-04T01:57:33.487Z,89.06
2018-04-04T01:58:33.225Z,89.54
2018-04-04T01:59:33.478Z,89.83
2018-04-04T02:00:33.462Z,89.92
2018-04-04T02:01:33.456Z,90.16
2018-04-04T02:02:33.199Z,89.73
2018-04-04T02:03:33.445Z,89.83
2018-04-04T02:04:33.441Z,89.83
2018-04-04T02:05:33.432Z,90.21
2018-04-04T02:06:33.427Z,90.21
2018-04-04T02:07:33.424Z,90.21
2018-04-04T02:08:33.422Z,89.73
2018-04-04T02:09:33.408Z,89.92
2018-04-04T02:10:33.401Z,90.11
2018-04-04T02:11:33.394Z,90.11
2018-04-04T02:12:33.390Z,90.59
2018-04-04T02:13:33.387Z,90.5
2018-04-04T02:14:33.378Z,90.4
2018-04-04T02:15:33.366Z,90.69
2018-04-04T02:16:33.360Z,90.69
2018-04-04T02:17:33.368Z,89.92
2018-04-04T02:18:33.392Z,90.31
2018-04-04T02:19:33.342Z,90.31
2018-04-04T02:20:33.335Z,90.64
2018-04-04T02:21:33.328Z,90.78
2018-04-04T02:22:33.330Z,91.41
2018-04-04T02:23:33.314Z,91.02
2018-04-04T02:24:33.312Z,91.31
2018-04-04T02:25:33.301Z,91.21
2018-04-04T02:26:33.041Z,91.5
2018-04-04T02:27:33.293Z,91.69
2018-04-04T02:28:33.282Z,92.07
2018-04-04T02:29:33.272Z,92.55
2018-04-04T02:30:33.269Z,92.03
2018-04-04T02:31:33.265Z,91.74
2018-04-04T02:32:33.257Z,92.98
2018-04-04T02:33:33.252Z,92.6
2018-04-04T02:34:33.240Z,92.5
2018-04-04T02:35:33.243Z,92.12
2018-04-04T02:36:33.224Z,93.27
2018-04-04T02:37:32.966Z,92.98
2018-04-04T02:38:33.211Z,93.65
2018-04-04T02:39:33.208Z,93.55
2018-04-04T02:40:33.197Z,93.46
2018-04-04T02:41:33.190Z,93.36
2018-04-04T02:42:33.182Z,93.46
2018-04-04T02:43:33.181Z,93.93
2018-04-04T02:44:33.167Z,94.51
2018-04-04T02:45:33.158Z,94.51
2018-04-04T02:46:32.901Z,94.17
2018-04-04T02:47:33.144Z,94.08
2018-04-04T02:48:33.141Z,94.17
2018-04-04T02:49:33.140Z,94.46
2018-04-04T02:50:32.870Z,94.46
2018-04-04T02:51:32.862Z,94.84
2018-04-04T02:52:33.113Z,95.03
2018-04-04T02:53:33.102Z,94.93
2018-04-04T02:54:33.100Z,94.84
2018-04-04T02:55:33.086Z,94.84
2018-04-04T02:56:33.077Z,95.79
2018-04-04T02:57:33.071Z,95.7
2018-04-04T02:58:32.808Z,95.22
2018-04-04T02:59:33.054Z,95.22
2018-04-04T03:00:33.047Z,95.51
2018-04-04T03:01:33.043Z,95.22
2018-04-04T03:02:33.036Z,95.79
2018-04-04T03:03:32.771Z,95.51
2018-04-04T03:04:33.023Z,95.94
2018-04-04T03:05:33.013Z,95.89
2018-04-04T03:06:32.747Z,95.75
2018-04-04T03:07:32.993Z,96.12
2018-04-04T03:08:32.732Z,96.22
2018-04-04T03:09:32.980Z,96.22
2018-04-04T03:10:32.969Z,95.84
2018-04-04T03:11:32.962Z,96.03
2018-04-04T03:12:32.961Z,96.03
2018-04-04T03:13:32.960Z,96.22
2018-04-04T03:14:32.936Z,96.03
2018-04-04T03:15:32.930Z,96.12
2018-04-04T03:16:32.932Z,96.41
2018-04-04T03:17:32.960Z,96.6
2018-04-04T03:18:32.922Z,96.41
2018-04-04T03:19:32.899Z,96.22
2018-04-04T03:20:32.919Z,96.32
2018-04-04T03:21:32.883Z,96.41
2018-04-04T03:22:32.874Z,96.6
2018-04-04T03:23:32.864Z,96.75
2018-04-04T03:24:32.856Z,96.7
2018-04-04T03:25:32.849Z,97.31
2018-04-04T03:26:32.842Z,97.41
2018-04-04T03:27:32.835Z,97.41
2018-04-04T03:28:32.832Z,97.22
2018-04-04T03:29:32.821Z,97.03
2018-04-04T03:30:32.839Z,97.13
2018-04-04T03:31:32.548Z,97.31
2018-04-04T03:32:32.539Z,97.13
2018-04-04T03:33:32.783Z,96.94
2018-04-04T03:34:32.776Z,97.22
2018-04-04T03:35:32.768Z,97.22
2018-04-04T03:36:32.762Z,97.31
2018-04-04T03:37:32.750Z,97.6
2018-04-04T03:38:32.742Z,97.31
2018-04-04T03:39:32.735Z,97.51
2018-04-04T03:40:32.728Z,97.41
2018-04-04T03:41:32.717Z,97.51
2018-04-04T03:42:32.716Z,97.41
2018-04-04T03:43:32.699Z,97.7
2018-04-04T03:44:32.709Z,97.41
2018-04-04T03:45:32.684Z,97.41
2018-04-04T03:46:32.676Z,97.22
2018-04-04T03:47:32.415Z,97.51
2018-04-04T03:48:32.406Z,97.51
2018-04-04T03:49:32.396Z,97.55
2018-04-04T03:50:32.388Z,97.65
2018-04-04T03:51:32.635Z,97.74
2018-04-04T03:52:32.388Z,97.65
2018-04-04T03:53:32.616Z,97.74
2018-04-04T03:54:32.607Z,97.84
2018-04-04T03:55:32.599Z,97.65
2018-04-04T03:56:32.594Z,97.84
2018-04-04T03:57:32.582Z,98.13
2018-04-04T03:58:32.616Z,98.13
2018-04-04T03:59:32.566Z,98.13
2018-04-04T04:00:32.302Z,97.93
2018-04-04T04:01:32.546Z,98.22
2018-04-04T04:02:32.546Z,98.03
2018-04-04T04:03:32.529Z,98.32
2018-04-04T04:04:32.523Z,98.32
2018-04-04T04:05:32.511Z,98.03
2018-04-04T04:06:32.512Z,98.22
2018-04-04T04:07:32.496Z,98.32
2018-04-04T04:08:32.243Z,98.22
2018-04-04T04:09:32.477Z,98.22
2018-04-04T04:10:32.468Z,98.41
2018-04-04T04:11:32.458Z,97.93
2018-04-04T04:12:32.456Z,97.74
2018-04-04T04:13:32.443Z,97.65
2018-04-04T04:14:32.435Z,97.65
2018-04-04T04:15:32.435Z,97.74
2018-04-04T04:16:32.166Z,97.65
2018-04-04T04:17:32.154Z,98.03
2018-04-04T04:18:32.145Z,97.93
2018-04-04T04:19:32.392Z,98.03
2018-04-04T04:20:32.387Z,98.22
2018-04-04T04:21:32.119Z,98.03
2018-04-04T04:22:32.362Z,98.13
2018-04-04T04:23:32.100Z,97.65
2018-04-04T04:24:32.349Z,98.03
2018-04-04T04:25:32.082Z,97.84
2018-04-04T04:26:32.326Z,98.03
2018-04-04T04:27:32.320Z,97.46
2018-04-04T04:28:32.310Z,97.84
2018-04-04T04:29:32.055Z,97.84
2018-04-04T04:30:32.397Z,97.74
2018-04-04T04:31:32.285Z,97.46
2018-04-04T04:32:32.272Z,97.65
2018-04-04T04:33:32.268Z,97.46
2018-04-04T04:34:32.254Z,97.65
2018-04-04T04:35:32.248Z,98.03
2018-04-04T04:36:32.249Z,97.65
2018-04-04T04:37:32.227Z,97.65
2018-04-04T04:38:32.219Z,97.74
2018-04-04T04:39:32.211Z,97.46
2018-04-04T04:40:32.202Z,97.46
2018-04-04T04:41:32.191Z,97.55
2018-04-04T04:42:32.192Z,97.36
2018-04-04T04:43:32.176Z,97.46
2018-04-04T04:44:32.164Z,97.65
2018-04-04T04:45:32.157Z,97.46
2018-04-04T04:46:32.148Z,97.84
2018-04-04T04:47:32.137Z,97.65
2018-04-04T04:48:32.140Z,97.84
2018-04-04T04:49:32.122Z,98.03
2018-04-04T04:50:32.111Z,97.84
2018-04-04T04:51:32.107Z,97.93
2018-04-04T04:52:32.103Z,97.84
2018-04-04T04:53:32.084Z,97.84
2018-04-04T04:54:32.078Z,97.46
2018-04-04T04:55:32.084Z,97.46
2018-04-04T04:56:31.811Z,97.46
2018-04-04T04:57:31.798Z,97.46
2018-04-04T04:58:32.041Z,97.08
2018-04-04T04:59:32.033Z,96.89
2018-04-04T05:00:32.047Z,96.75
2018-04-04T05:01:32.016Z,97.03
2018-04-04T05:02:32.007Z,96.17
2018-04-04T05:03:32.002Z,96.65
2018-04-04T05:04:31.990Z,96.65
2018-04-04T05:05:31.986Z,96.36
2018-04-04T05:06:31.973Z,96.46
2018-04-04T05:07:31.976Z,95.98
2018-04-04T05:08:31.955Z,96.03
2018-04-04T05:09:31.695Z,95.75
2018-04-04T05:10:31.939Z,95.46
2018-04-04T05:11:31.934Z,95.27
2018-04-04T05:12:31.930Z,94.79
2018-04-04T05:13:31.662Z,94.7
2018-04-04T05:14:31.661Z,94.56
2018-04-04T05:15:31.908Z,94.37
2018-04-04T05:16:31.640Z,93.98
2018-04-04T05:17:31.885Z,93.88
2018-04-04T05:18:31.879Z,93.6
2018-04-04T05:19:31.872Z,93.32
2018-04-04T05:20:31.927Z,92.69
2018-04-04T05:21:31.871Z,93.08
2018-04-04T05:22:31.849Z,92.6
2018-04-04T05:23:31.840Z,92.41
2018-04-04T05:24:31.846Z,92.41
2018-04-04T05:25:31.830Z,91.6
2018-04-04T05:26:31.825Z,91.6
2018-04-04T05:27:31.826Z,90.83
2018-04-04T05:28:31.808Z,91.16
2018-04-04T05:29:31.804Z,90.69
2018-04-04T05:30:31.795Z,89.83
2018-04-04T05:31:31.793Z,89.54
2018-04-04T05:32:31.782Z,88.73
2018-04-04T05:33:31.523Z,88.82
2018-04-04T05:34:31.770Z,88.54
2018-04-04T05:35:31.512Z,88.06
2018-04-04T05:36:31.758Z,87.72
2018-04-04T05:37:31.752Z,87.53
2018-04-04T05:38:31.760Z,86.96
2018-04-04T05:39:31.801Z,87.19
2018-04-04T05:40:31.742Z,86.8
2018-04-04T05:41:31.480Z,86.43
2018-04-04T05:42:31.480Z,86.33
2018-04-04T05:43:31.472Z,86.14
2018-04-04T05:44:31.720Z,85.28
2018-04-04T05:45:31.715Z,85.22
2018-04-04T05:46:31.723Z,84.84
2018-04-04T05:47:31.451Z,84.55
2018-04-04T05:48:31.700Z,83.69
2018-04-04T05:49:31.443Z,83.6
2018-04-04T05:50:31.697Z,83.45
2018-04-04T05:51:31.686Z,82.87
2018-04-04T05:52:31.430Z,82.11
2018-04-04T05:53:31.680Z,82.68
2018-04-04T05:54:31.677Z,82.49
2018-04-04T05:55:31.668Z,81.92
2018-04-04T05:56:31.666Z,82.01
2018-04-04T05:57:31.660Z,82.11
2018-04-04T05:58:31.729Z,81.57
2018-04-04T05:59:31.868Z,81.48
2018-04-04T06:00:31.652Z,81.77
2018-04-04T06:01:31.646Z,81.38
2018-04-04T06:02:31.650Z,80.94
2018-04-04T06:03:31.388Z,80.76
2018-04-04T06:04:31.384Z,80.08
2018-04-04T06:05:31.634Z,79.07
2018-04-04T06:06:31.630Z,78.88
2018-04-04T06:07:31.626Z,78.25
2018-04-04T06:08:31.639Z,77.38
2018-04-04T06:09:31.632Z,77.33
2018-04-04T06:10:31.620Z,76.65
2018-04-04T06:11:31.369Z,76.02
2018-04-04T06:12:31.617Z,75.29
2018-04-04T06:13:31.626Z,73.85
2018-04-04T06:14:31.614Z,73.31
2018-04-04T06:15:31.613Z,72.16
2018-04-04T06:16:31.366Z,71.42
2018-04-04T06:17:31.610Z,70.94
2018-04-04T06:18:31.363Z,70.56
2018-04-04T06:19:31.608Z,69.34
2018-04-04T06:20:31.826Z,68.76
2018-04-04T06:21:31.624Z,68.67
2018-04-04T06:22:31.612Z,67.55
2018-04-04T06:23:31.353Z,66.3
2018-04-04T06:24:31.610Z,66.04
2018-04-04T06:25:31.607Z,64.4
2018-04-04T06:26:31.611Z,63.09
2018-04-04T06:27:31.608Z,62.51
2018-04-04T06:28:31.358Z,60.52
2018-04-04T06:29:31.611Z,59.36
2018-04-04T06:30:31.613Z,59.17
2018-04-04T06:31:31.362Z,59.2
2018-04-04T06:32:31.617Z,58.81
2018-04-04T06:33:31.618Z,57.75
2018-04-04T06:34:31.638Z,57.01
2018-04-04T06:35:31.652Z,56.43
2018-04-04T06:36:31.389Z,55.1
2018-04-04T06:37:31.643Z,55.2
2018-04-04T06:38:31.646Z,54.84
2018-04-04T06:39:31.637Z,53.3
2018-04-04T06:40:31.647Z,54
2018-04-04T06:41:31.653Z,52.75
2018-04-04T06:42:31.650Z,52.29
2018-04-04T06:43:31.674Z,51.51
2018-04-04T06:44:31.721Z,50.86
2018-04-04T06:45:31.666Z,50.09
2018-04-04T06:46:31.719Z,49.6
2018-04-04T06:47:31.679Z,49.7
2018-04-04T06:48:31.680Z,49.7
2018-04-04T06:49:31.688Z,49.7
2018-04-04T06:50:31.439Z,49.54
2018-04-04T06:51:31.715Z,48.95
2018-04-04T06:52:31.452Z,48.95
2018-04-04T06:53:31.710Z,48.2
2018-04-04T06:54:31.722Z,47.45
2018-04-04T06:55:31.819Z,46.87
2018-04-04T06:56:31.736Z,46.48
2018-04-04T06:57:31.738Z,46
2018-04-04T06:58:31.749Z,45.92
2018-04-04T06:59:31.760Z,45.64
2018-04-04T07:00:31.762Z,45.47
2018-04-04T07:01:31.768Z,44.88
2018-04-04T07:02:31.522Z,44.23
2018-04-04T07:03:31.787Z,42.89
2018-04-04T07:04:31.809Z,42.79
2018-04-04T07:05:31.545Z,42.79
2018-04-04T07:06:31.816Z,43.18
2018-04-04T07:07:32.076Z,42.99
2018-04-04T07:08:31.574Z,42.43
2018-04-04T07:09:31.832Z,41.74
2018-04-04T07:10:31.595Z,41.36
2018-04-04T07:11:31.848Z,40.99
2018-04-04T07:12:31.605Z,40.41
2018-04-04T07:13:31.627Z,41.18
2018-04-04T07:14:31.875Z,40.81
2018-04-04T07:15:31.887Z,40.91
2018-04-04T07:16:31.895Z,40.33
2018-04-04T07:17:31.901Z,40.25
2018-04-04T07:18:31.917Z,39.37
2018-04-04T07:19:31.920Z,39.37
2018-04-04T07:20:31.935Z,39.37
2018-04-04T07:21:31.972Z,39.39
2018-04-04T07:22:31.962Z,39.1
2018-04-04T07:23:31.974Z,39.39
2018-04-04T07:24:31.982Z,38.71
2018-04-04T07:25:31.987Z,38.15
2018-04-04T07:26:31.741Z,37.95
2018-04-04T07:27:32.017Z,37.66
2018-04-04T07:28:32.019Z,37.58
2018-04-04T07:29:32.024Z,37.58
2018-04-04T07:30:32.039Z,37.39
2018-04-04T07:31:32.044Z,37.31
2018-04-04T07:32:32.071Z,36.9
2018-04-04T07:33:32.087Z,36.92
2018-04-04T07:34:32.071Z,36.61
2018-04-04T07:35:32.086Z,36.63
2018-04-04T07:36:31.843Z,36.72
2018-04-04T07:37:32.107Z,36.43
2018-04-04T07:38:32.123Z,36.53
2018-04-04T07:39:32.140Z,36.24
2018-04-04T07:40:32.146Z,36.25
2018-04-04T07:41:32.169Z,36.35
2018-04-04T07:42:32.176Z,35.96
2018-04-04T07:43:32.175Z,36.45
2018-04-04T07:44:31.965Z,34.89
2018-04-04T07:45:32.213Z,34.89
2018-04-04T07:46:32.227Z,35.18
2018-04-04T07:47:31.985Z,35.1
2018-04-04T07:48:32.284Z,35.2
2018-04-04T07:49:32.292Z,34.61
2018-04-04T07:50:32.021Z,34.44
2018-04-04T07:51:32.276Z,33.95
2018-04-04T07:52:32.035Z,33.65
2018-04-04T07:53:32.312Z,33.26
2018-04-04T07:54:32.323Z,33.09
2018-04-04T07:55:32.335Z,33.09
2018-04-04T07:56:32.339Z,32.6
2018-04-04T07:57:32.350Z,32.31
2018-04-04T07:58:32.379Z,32.4
2018-04-04T07:59:32.127Z,32.11
2018-04-04T08:00:32.388Z,32.09
2018-04-04T08:01:32.400Z,32.19
2018-04-04T08:02:32.423Z,31.7
2018-04-04T08:03:32.186Z,31.49
2018-04-04T08:04:32.442Z,31.49
2018-04-04T08:05:32.217Z,31.57
2018-04-04T08:06:32.453Z,31.96
2018-04-04T08:07:32.487Z,32.45
2018-04-04T08:08:32.479Z,32.43
2018-04-04T08:09:32.232Z,32.62
2018-04-04T08:10:32.526Z,32.71
2018-04-04T08:11:32.509Z,33.29
2018-04-04T08:12:32.521Z,33.18
2018-04-04T08:13:32.562Z,32.7
2018-04-04T08:14:32.541Z,32.5
2018-04-04T08:15:32.551Z,32.78
2018-04-04T08:16:32.575Z,32.87
2018-04-04T08:17:32.594Z,33.54
2018-04-04T08:18:32.586Z,34.52
2018-04-04T08:19:32.342Z,34.79
2018-04-04T08:20:32.604Z,35.08
2018-04-04T08:21:32.361Z,34.97
2018-04-04T08:22:32.381Z,35.64
2018-04-04T08:23:32.649Z,36.04
2018-04-04T08:24:32.655Z,35.92
2018-04-04T08:25:32.681Z,36.6
2018-04-04T08:26:32.709Z,36.1
2018-04-04T08:27:32.775Z,37.07
2018-04-04T08:28:32.496Z,37.15
2018-04-04T08:29:32.767Z,37.15
2018-04-04T08:30:32.733Z,37.23
2018-04-04T08:31:32.779Z,37.41
2018-04-04T08:32:32.482Z,38.19
2018-04-04T08:33:32.744Z,38.07
2018-04-04T08:34:32.862Z,38.76
2018-04-04T08:35:32.779Z,38.73
2018-04-04T08:36:32.770Z,38.73
2018-04-04T08:37:32.514Z,39.61
2018-04-04T08:39:35.046Z,39.32
2018-04-04T08:40:32.764Z,39.9
2018-04-04T08:41:32.982Z,39.78
2018-04-04T08:42:32.525Z,40.17
2018-04-04T08:43:32.813Z,40.46
2018-04-04T08:44:32.863Z,40.92
2018-04-04T08:46:32.796Z,41.11
2018-04-04T08:47:32.537Z,41.11
2018-04-04T08:48:32.788Z,41.5
2018-04-04T08:49:32.822Z,41.89
2018-04-04T08:50:32.799Z,41.48
2018-04-04T08:51:32.546Z,41.39
2018-04-04T08:52:32.806Z,41.97
2018-04-04T08:53:32.813Z,42.16
2018-04-04T08:54:32.809Z,42.55
2018-04-04T08:55:32.820Z,42.55
2018-04-04T08:56:32.839Z,42.55
2018-04-04T08:57:32.824Z,42.45
2018-04-04T08:58:32.819Z,42.45
2018-04-04T08:59:32.837Z,42.93
2018-04-04T09:00:32.824Z,42.93
2018-04-04T09:01:32.860Z,43.23
2018-04-04T09:03:32.583Z,42.55
2018-04-04T09:04:32.862Z,42.65
2018-04-04T09:05:32.841Z,42.55
2018-04-04T09:06:32.868Z,42.45
2018-04-04T09:07:32.593Z,42.65
2018-04-04T09:09:33.160Z,41.97
2018-04-04T09:10:32.852Z,41.97
2018-04-04T09:11:32.852Z,41.48
2018-04-04T09:12:32.605Z,41.58
2018-04-04T09:13:32.868Z,41.58
2018-04-04T09:14:32.949Z,41.19
2018-04-04T09:15:32.608Z,41.19
2018-04-04T09:16:32.867Z,40.9
2018-04-04T09:17:32.873Z,41
2018-04-04T09:18:32.872Z,41.29
2018-04-04T09:19:32.926Z,41.77
2018-04-04T09:20:32.880Z,42.24
2018-04-04T09:21:32.901Z,42.43
2018-04-04T09:22:32.895Z,42.16
2018-04-04T09:23:32.911Z,42.04
2018-04-04T09:24:32.915Z,42.14
2018-04-04T09:25:32.947Z,42.52
2018-04-04T09:26:32.928Z,42.62
2018-04-04T09:27:32.898Z,42.14
2018-04-04T09:28:32.892Z,42.43
2018-04-04T09:29:32.903Z,42.14
2018-04-04T09:30:32.944Z,41.85
2018-04-04T09:31:32.901Z,41.75
2018-04-04T09:32:32.910Z,41.46
2018-04-04T09:33:32.915Z,41.36
2018-04-04T09:34:32.951Z,41.46
2018-04-04T09:35:32.924Z,41.46
2018-04-04T09:36:32.923Z,42.02
2018-04-04T09:37:32.657Z,41.85
2018-04-04T09:38:32.926Z,42.12
2018-04-04T09:39:32.664Z,42.02
2018-04-04T09:40:32.914Z,42.21
2018-04-04T09:41:32.914Z,42.7
2018-04-04T09:42:32.925Z,42.21
2018-04-04T09:43:32.937Z,42.12
2018-04-04T09:44:32.927Z,42.19
2018-04-04T09:45:32.674Z,42.1
2018-04-04T09:46:32.991Z,43.26
2018-04-04T09:47:32.696Z,43.06
2018-04-04T09:48:32.686Z,43.06
2018-04-04T09:49:32.930Z,43.16
2018-04-04T09:50:32.677Z,43.16
2018-04-04T09:51:32.987Z,42.94
2018-04-04T09:52:32.938Z,42.94
2018-04-04T09:53:32.970Z,42.75
2018-04-04T09:54:32.934Z,43.52
2018-04-04T09:55:32.941Z,44.29
2018-04-04T09:56:32.941Z,44.2
2018-04-04T09:57:32.937Z,44.1
2018-04-04T09:58:32.961Z,43.91
2018-04-04T09:59:32.992Z,43.91
2018-04-04T10:00:32.981Z,44.27
2018-04-04T10:01:32.942Z,44.59
2018-04-04T10:02:32.941Z,44.76
2018-04-04T10:03:32.695Z,44.76
2018-04-04T10:04:32.950Z,44.56
2018-04-04T10:05:32.949Z,44.76
2018-04-04T10:06:32.956Z,44.95
2018-04-04T10:07:32.950Z,45.34
2018-04-04T10:08:32.950Z,46.01
2018-04-04T10:09:32.947Z,44.85
2018-04-04T10:10:32.947Z,45.04
2018-04-04T10:11:32.993Z,45.24
2018-04-04T10:12:32.972Z,45.24
2018-04-04T10:13:32.975Z,45.82
2018-04-04T10:14:32.980Z,46.11
2018-04-04T10:15:32.958Z,45.62
2018-04-04T10:16:32.988Z,45.24
2018-04-04T10:17:32.947Z,45.24
2018-04-04T10:18:32.959Z,45.53
2018-04-04T10:19:32.696Z,45.82
2018-04-04T10:20:32.957Z,45.43
2018-04-04T10:21:32.989Z,45.62
2018-04-04T10:22:32.969Z,45.82
2018-04-04T10:23:32.968Z,45.62
2018-04-04T10:24:32.977Z,45.82
2018-04-04T10:25:33.587Z,45.62
2018-04-04T10:26:33.023Z,45.34
2018-04-04T10:27:32.972Z,45.24
2018-04-04T10:28:32.700Z,45.14
2018-04-04T10:29:32.957Z,44.85
2018-04-04T10:30:32.952Z,44.85
2018-04-04T10:31:32.701Z,44.97
2018-04-04T10:32:32.724Z,44.97
2018-04-04T10:33:32.992Z,44.87
2018-04-04T10:34:32.957Z,44.1
2018-04-04T10:35:32.702Z,43.72
2018-04-04T10:36:32.956Z,43.04
2018-04-04T10:37:32.956Z,43.52
2018-04-04T10:38:33.008Z,43.64
2018-04-04T10:39:32.960Z,42.56
2018-04-04T10:40:32.968Z,42.97
2018-04-04T10:41:32.958Z,42.68
2018-04-04T10:42:32.963Z,42.1
2018-04-04T10:43:32.706Z,41.91
2018-04-04T10:44:33.010Z,42.1
2018-04-04T10:45:32.969Z,42.19
2018-04-04T10:46:32.967Z,42.1
2018-04-04T10:47:32.962Z,42.1
2018-04-04T10:48:32.962Z,41.71
2018-04-04T10:49:32.964Z,42
2018-04-04T10:50:32.754Z,42.48
2018-04-04T10:51:32.986Z,42.79
2018-04-04T10:52:32.979Z,42.41
2018-04-04T10:53:32.968Z,42.7
2018-04-04T10:54:32.980Z,42.41
2018-04-04T10:55:32.981Z,42.5
2018-04-04T10:56:32.977Z,42.5
2018-04-04T10:57:32.981Z,42.7
2018-04-04T10:58:32.975Z,42.89
2018-04-04T10:59:32.724Z,43.18
2018-04-04T11:00:32.729Z,43.57
2018-04-04T11:01:32.993Z,43.68
2018-04-04T11:02:33.001Z,42.91
2018-04-04T11:03:32.985Z,42.79
2018-04-04T11:04:32.732Z,42.31
2018-04-04T11:05:32.992Z,42.21
2018-04-04T11:06:33.015Z,42.62
2018-04-04T11:07:32.993Z,42.12
2018-04-04T11:08:32.987Z,42.14
2018-04-04T11:09:32.997Z,42.6
2018-04-04T11:10:32.991Z,42.5
2018-04-04T11:11:32.747Z,42.79
2018-04-04T11:12:32.746Z,42.04
2018-04-04T11:13:32.745Z,42.02
2018-04-04T11:14:32.768Z,42.02
2018-04-04T11:15:32.997Z,42.24
2018-04-04T11:16:32.772Z,42.89
2018-04-04T11:17:33.103Z,42.79
2018-04-04T11:18:32.751Z,43.18
2018-04-04T11:19:33.034Z,42.79
2018-04-04T11:20:33.158Z,43.37
2018-04-04T11:21:33.009Z,43.47
2018-04-04T11:22:33.013Z,42.7
2018-04-04T11:23:32.777Z,42.6
2018-04-04T11:24:32.761Z,42.79
2018-04-04T11:25:33.018Z,42.41
2018-04-04T11:26:33.014Z,42.7
2018-04-04T11:27:33.016Z,42.41
2018-04-04T11:28:33.257Z,42.7
2018-04-04T11:29:33.027Z,42.41
2018-04-04T11:30:32.764Z,42.6
2018-04-04T11:31:33.038Z,42.79
2018-04-04T11:32:33.025Z,43.37
2018-04-04T11:33:33.032Z,43.66
2018-04-04T11:34:33.039Z,43.95
2018-04-04T11:35:33.067Z,43.85
2018-04-04T11:36:33.076Z,43.57
2018-04-04T11:37:32.777Z,43.54
2018-04-04T11:38:33.028Z,43.64
2018-04-04T11:39:33.030Z,42.89
2018-04-04T11:40:33.045Z,42.7
2018-04-04T11:41:33.063Z,42.99
2018-04-04T11:42:33.039Z,42.89
2018-04-04T11:43:33.036Z,42.99
2018-04-04T11:44:33.036Z,43.28
2018-04-04T11:45:33.039Z,42.7
2018-04-04T11:46:32.784Z,42.5
2018-04-04T11:47:33.043Z,42.31
2018-04-04T11:48:33.043Z,41.54
2018-04-04T11:49:33.042Z,41.63
2018-04-04T11:50:33.044Z,41.63
2018-04-04T11:51:33.147Z,41.44
2018-04-04T11:52:32.798Z,41.73
2018-04-04T11:53:33.052Z,41.93
2018-04-04T11:54:33.062Z,42.41
2018-04-04T11:55:33.047Z,42.02
2018-04-04T11:56:33.049Z,40.96
2018-04-04T11:57:33.051Z,40.88
2018-04-04T11:58:33.075Z,41.05
2018-04-04T11:59:33.061Z,41.17
2018-04-04T12:00:33.072Z,41.36
2018-04-04T12:01:33.069Z,41.36
2018-04-04T12:02:33.065Z,41.75
2018-04-04T12:03:33.059Z,41.27
2018-04-04T12:04:33.075Z,40.98
2018-04-04T12:05:32.817Z,41.08
2018-04-04T12:06:32.812Z,40.5
2018-04-04T12:07:33.071Z,39.72
2018-04-04T12:08:33.080Z,39.62
2018-04-04T12:09:33.066Z,38.66
2018-04-04T12:10:32.834Z,37.7
2018-04-04T12:11:33.071Z,37.4
2018-04-04T12:12:33.129Z,37.58
2018-04-04T12:13:32.820Z,37.67
2018-04-04T12:14:33.077Z,37.98
2018-04-04T12:15:33.084Z,37.38
2018-04-04T12:16:33.112Z,37.58
2018-04-04T12:17:33.076Z,37.67
2018-04-04T12:18:33.078Z,37.19
2018-04-04T12:19:33.092Z,37.58
2018-04-04T12:20:33.081Z,37.96
2018-04-04T12:21:33.085Z,38.74
2018-04-04T12:22:33.132Z,38.35
2018-04-04T12:23:33.085Z,38.76
2018-04-04T12:24:32.839Z,38.45
2018-04-04T12:25:33.097Z,38.35
2018-04-04T12:26:33.090Z,38.06
2018-04-04T12:27:33.099Z,37.79
2018-04-04T12:28:33.091Z,37.29
2018-04-04T12:29:33.094Z,37.1
2018-04-04T12:30:33.097Z,37.87
2018-04-04T12:31:33.097Z,38.06
2018-04-04T12:32:33.144Z,38.16
2018-04-04T12:33:33.102Z,38.54
2018-04-04T12:34:33.105Z,38.45
2018-04-04T12:35:33.122Z,38.45
2018-04-04T12:36:32.858Z,38.16
2018-04-04T12:37:33.113Z,37.77
2018-04-04T12:38:32.884Z,38.04
2018-04-04T12:39:33.108Z,38.53
2018-04-04T12:40:33.110Z,38.33
2018-04-04T12:41:33.121Z,38.62
2018-04-04T12:42:33.110Z,38.54
2018-04-04T12:43:33.114Z,38.71
2018-04-04T12:44:32.861Z,38.81
2018-04-04T12:45:33.124Z,38.71
2018-04-04T12:46:33.158Z,39.69
2018-04-04T12:47:33.126Z,38.71
2018-04-04T12:48:33.123Z,38.81
2018-04-04T12:49:33.121Z,39.2
2018-04-04T12:50:33.128Z,39.69
2018-04-04T12:51:32.885Z,39.59
2018-04-04T12:52:33.131Z,39.97
2018-04-04T12:53:33.125Z,39.97
2018-04-04T12:54:33.137Z,40.34
2018-04-04T12:55:33.195Z,40.45
2018-04-04T12:56:33.132Z,40.05
2018-04-04T12:57:33.128Z,40.26
2018-04-04T12:58:33.150Z,40.24
2018-04-04T12:59:32.871Z,40.53